sensor_id;sensor_type;location;lat;lon;timestamp;P1;durP1;ratioP1;P2;durP2;ratioP2
37237;SDS011;23129;49.662;8.448;2023-06-26T00:01:29;8.70;;;4.90;;
37237;SDS011;23129;49.662;8.448;2023-06-26T00:04:00;24.33;;;4.93;;
37237;SDS011;23129;49.662;8.448;2023-06-26T00:06:29;6.90;;;4.38;;
37237;SDS011;23129;49.662;8.448;2023-06-26T00:08:58;15.27;;;5.00;;
37237;SDS011;23129;49.662;8.448;2023-06-26T00:11:26;5.85;;;4.63;;
37237;SDS011;23129;49.662;8.448;2023-06-26T00:13:57;7.20;;;5.13;;
37237;SDS011;23129;49.662;8.448;2023-06-26T00:16:26;8.40;;;5.45;;
37237;SDS011;23129;49.662;8.448;2023-06-26T00:18:55;13.20;;;5.78;;
37237;SDS011;23129;49.662;8.448;2023-06-26T00:21:26;11.25;;;4.75;;
37237;SDS011;23129;49.662;8.448;2023-06-26T00:23:54;6.45;;;5.30;;
37237;SDS011;23129;49.662;8.448;2023-06-26T00:26:23;7.32;;;5.13;;
37237;SDS011;23129;49.662;8.448;2023-06-26T00:28:51;9.30;;;4.60;;
37237;SDS011;23129;49.662;8.448;2023-06-26T00:31:20;14.02;;;5.50;;
37237;SDS011;23129;49.662;8.448;2023-06-26T00:33:48;13.32;;;5.38;;
37237;SDS011;23129;49.662;8.448;2023-06-26T00:36:17;12.82;;;4.60;;
37237;SDS011;23129;49.662;8.448;2023-06-26T00:38:47;10.98;;;4.82;;
37237;SDS011;23129;49.662;8.448;2023-06-26T00:41:16;6.50;;;4.85;;
37237;SDS011;23129;49.662;8.448;2023-06-26T00:43:44;10.27;;;4.63;;
37237;SDS011;23129;49.662;8.448;2023-06-26T00:46:13;12.63;;;4.88;;
37237;SDS011;23129;49.662;8.448;2023-06-26T00:48:43;15.70;;;4.93;;
37237;SDS011;23129;49.662;8.448;2023-06-26T00:51:13;8.60;;;5.15;;
37237;SDS011;23129;49.662;8.448;2023-06-26T00:53:42;9.23;;;5.35;;
37237;SDS011;23129;49.662;8.448;2023-06-26T00:56:12;5.05;;;4.55;;
37237;SDS011;23129;49.662;8.448;2023-06-26T00:58:42;10.57;;;5.03;;
37237;SDS011;23129;49.662;8.448;2023-06-26T01:01:12;11.20;;;5.20;;
37237;SDS011;23129;49.662;8.448;2023-06-26T01:03:43;10.85;;;5.45;;
37237;SDS011;23129;49.662;8.448;2023-06-26T01:06:12;10.00;;;5.53;;
37237;SDS011;23129;49.662;8.448;2023-06-26T01:08:43;6.28;;;5.35;;
37237;SDS011;23129;49.662;8.448;2023-06-26T01:11:14;6.55;;;4.80;;
37237;SDS011;23129;49.662;8.448;2023-06-26T01:13:42;9.65;;;4.43;;
37237;SDS011;23129;49.662;8.448;2023-06-26T01:16:11;8.65;;;5.10;;
37237;SDS011;23129;49.662;8.448;2023-06-26T01:18:41;8.77;;;5.35;;
37237;SDS011;23129;49.662;8.448;2023-06-26T01:21:12;9.00;;;4.68;;
37237;SDS011;23129;49.662;8.448;2023-06-26T01:23:46;7.78;;;5.03;;
37237;SDS011;23129;49.662;8.448;2023-06-26T01:26:27;12.75;;;5.80;;
37237;SDS011;23129;49.662;8.448;2023-06-26T01:28:58;7.65;;;5.30;;
37237;SDS011;23129;49.662;8.448;2023-06-26T01:31:28;10.65;;;5.22;;
37237;SDS011;23129;49.662;8.448;2023-06-26T01:34:00;6.65;;;4.93;;
37237;SDS011;23129;49.662;8.448;2023-06-26T01:36:31;10.35;;;5.18;;
37237;SDS011;23129;49.662;8.448;2023-06-26T01:38:59;12.07;;;5.65;;
37237;SDS011;23129;49.662;8.448;2023-06-26T01:41:29;5.68;;;4.60;;
37237;SDS011;23129;49.662;8.448;2023-06-26T01:44:01;9.00;;;4.47;;
37237;SDS011;23129;49.662;8.448;2023-06-26T01:46:44;7.30;;;4.63;;
37237;SDS011;23129;49.662;8.448;2023-06-26T01:49:31;17.63;;;5.25;;
37237;SDS011;23129;49.662;8.448;2023-06-26T01:52:14;10.15;;;4.50;;
37237;SDS011;23129;49.662;8.448;2023-06-26T01:54:55;7.20;;;4.50;;
37237;SDS011;23129;49.662;8.448;2023-06-26T01:57:31;11.90;;;4.80;;
37237;SDS011;23129;49.662;8.448;2023-06-26T02:00:03;11.75;;;5.85;;
37237;SDS011;23129;49.662;8.448;2023-06-26T02:02:40;12.43;;;5.85;;
37237;SDS011;23129;49.662;8.448;2023-06-26T02:05:12;10.88;;;5.63;;
37237;SDS011;23129;49.662;8.448;2023-06-26T02:07:42;8.45;;;5.72;;
37237;SDS011;23129;49.662;8.448;2023-06-26T02:10:10;8.40;;;5.70;;
37237;SDS011;23129;49.662;8.448;2023-06-26T02:12:40;10.57;;;5.80;;
37237;SDS011;23129;49.662;8.448;2023-06-26T02:15:11;7.25;;;5.70;;
37237;SDS011;23129;49.662;8.448;2023-06-26T02:17:39;12.05;;;5.75;;
37237;SDS011;23129;49.662;8.448;2023-06-26T02:20:09;19.02;;;6.00;;
37237;SDS011;23129;49.662;8.448;2023-06-26T02:22:39;8.98;;;5.30;;
37237;SDS011;23129;49.662;8.448;2023-06-26T02:25:08;10.80;;;5.82;;
37237;SDS011;23129;49.662;8.448;2023-06-26T02:27:38;10.13;;;5.53;;
37237;SDS011;23129;49.662;8.448;2023-06-26T02:30:11;11.98;;;6.50;;
37237;SDS011;23129;49.662;8.448;2023-06-26T02:32:39;9.90;;;6.57;;
37237;SDS011;23129;49.662;8.448;2023-06-26T02:35:08;10.20;;;6.85;;
37237;SDS011;23129;49.662;8.448;2023-06-26T02:37:41;12.55;;;6.63;;
37237;SDS011;23129;49.662;8.448;2023-06-26T02:40:09;8.55;;;6.18;;
37237;SDS011;23129;49.662;8.448;2023-06-26T02:42:41;8.02;;;5.93;;
37237;SDS011;23129;49.662;8.448;2023-06-26T02:45:10;12.95;;;6.63;;
37237;SDS011;23129;49.662;8.448;2023-06-26T02:47:39;9.07;;;5.68;;
37237;SDS011;23129;49.662;8.448;2023-06-26T02:50:10;8.43;;;5.35;;
37237;SDS011;23129;49.662;8.448;2023-06-26T02:52:58;11.43;;;6.18;;
37237;SDS011;23129;49.662;8.448;2023-06-26T02:55:27;12.82;;;7.10;;
37237;SDS011;23129;49.662;8.448;2023-06-26T02:57:57;7.07;;;5.30;;
37237;SDS011;23129;49.662;8.448;2023-06-26T03:00:26;13.30;;;6.65;;
37237;SDS011;23129;49.662;8.448;2023-06-26T03:02:59;7.38;;;5.22;;
37237;SDS011;23129;49.662;8.448;2023-06-26T03:05:28;11.35;;;6.57;;
37237;SDS011;23129;49.662;8.448;2023-06-26T03:07:58;7.47;;;5.88;;
37237;SDS011;23129;49.662;8.448;2023-06-26T03:10:27;8.60;;;5.97;;
37237;SDS011;23129;49.662;8.448;2023-06-26T03:12:55;9.55;;;6.35;;
37237;SDS011;23129;49.662;8.448;2023-06-26T03:15:25;8.65;;;6.15;;
37237;SDS011;23129;49.662;8.448;2023-06-26T03:17:54;14.18;;;6.53;;
37237;SDS011;23129;49.662;8.448;2023-06-26T03:20:26;12.65;;;5.90;;
37237;SDS011;23129;49.662;8.448;2023-06-26T03:22:56;10.50;;;6.40;;
37237;SDS011;23129;49.662;8.448;2023-06-26T03:25:25;17.88;;;5.65;;
37237;SDS011;23129;49.662;8.448;2023-06-26T03:28:17;11.00;;;5.72;;
37237;SDS011;23129;49.662;8.448;2023-06-26T03:30:46;11.13;;;5.57;;
37237;SDS011;23129;49.662;8.448;2023-06-26T03:33:16;8.88;;;5.82;;
37237;SDS011;23129;49.662;8.448;2023-06-26T03:35:45;9.07;;;5.93;;
37237;SDS011;23129;49.662;8.448;2023-06-26T03:38:14;8.65;;;5.68;;
37237;SDS011;23129;49.662;8.448;2023-06-26T03:40:44;8.68;;;6.15;;
37237;SDS011;23129;49.662;8.448;2023-06-26T03:43:13;7.30;;;5.13;;
37237;SDS011;23129;49.662;8.448;2023-06-26T03:45:49;10.57;;;6.60;;
37237;SDS011;23129;49.662;8.448;2023-06-26T03:48:18;9.40;;;6.20;;
37237;SDS011;23129;49.662;8.448;2023-06-26T03:50:46;14.57;;;5.63;;
37237;SDS011;23129;49.662;8.448;2023-06-26T03:53:15;10.68;;;6.18;;
37237;SDS011;23129;49.662;8.448;2023-06-26T03:55:44;11.77;;;6.18;;
37237;SDS011;23129;49.662;8.448;2023-06-26T03:58:12;11.07;;;6.38;;
37237;SDS011;23129;49.662;8.448;2023-06-26T04:00:41;10.00;;;5.65;;
37237;SDS011;23129;49.662;8.448;2023-06-26T04:03:11;8.90;;;6.10;;
37237;SDS011;23129;49.662;8.448;2023-06-26T04:05:40;6.70;;;5.57;;
37237;SDS011;23129;49.662;8.448;2023-06-26T04:08:09;5.80;;;5.10;;
37237;SDS011;23129;49.662;8.448;2023-06-26T04:10:37;12.65;;;6.05;;
37237;SDS011;23129;49.662;8.448;2023-06-26T04:13:06;13.82;;;6.13;;
37237;SDS011;23129;49.662;8.448;2023-06-26T04:15:34;7.80;;;5.80;;
37237;SDS011;23129;49.662;8.448;2023-06-26T04:18:03;11.23;;;6.43;;
37237;SDS011;23129;49.662;8.448;2023-06-26T04:20:36;10.32;;;6.28;;
37237;SDS011;23129;49.662;8.448;2023-06-26T04:25:35;18.67;;;6.45;;
37237;SDS011;23129;49.662;8.448;2023-06-26T04:28:04;12.90;;;5.90;;
37237;SDS011;23129;49.662;8.448;2023-06-26T04:30:33;12.23;;;6.65;;
37237;SDS011;23129;49.662;8.448;2023-06-26T04:33:01;8.95;;;6.50;;
37237;SDS011;23129;49.662;8.448;2023-06-26T04:35:30;8.50;;;5.82;;
37237;SDS011;23129;49.662;8.448;2023-06-26T04:38:04;11.98;;;6.75;;
37237;SDS011;23129;49.662;8.448;2023-06-26T04:40:33;9.85;;;6.28;;
37237;SDS011;23129;49.662;8.448;2023-06-26T04:43:01;12.55;;;5.85;;
37237;SDS011;23129;49.662;8.448;2023-06-26T04:45:30;10.85;;;6.53;;
37237;SDS011;23129;49.662;8.448;2023-06-26T04:47:59;10.73;;;6.25;;
37237;SDS011;23129;49.662;8.448;2023-06-26T04:50:27;8.15;;;6.10;;
37237;SDS011;23129;49.662;8.448;2023-06-26T04:52:57;14.95;;;6.47;;
37237;SDS011;23129;49.662;8.448;2023-06-26T04:55:27;8.63;;;6.13;;
37237;SDS011;23129;49.662;8.448;2023-06-26T04:57:56;9.45;;;6.30;;
37237;SDS011;23129;49.662;8.448;2023-06-26T05:00:25;13.55;;;6.07;;
37237;SDS011;23129;49.662;8.448;2023-06-26T05:02:54;12.27;;;5.82;;
37237;SDS011;23129;49.662;8.448;2023-06-26T05:05:27;10.65;;;6.20;;
37237;SDS011;23129;49.662;8.448;2023-06-26T05:07:56;9.75;;;6.28;;
37237;SDS011;23129;49.662;8.448;2023-06-26T05:10:26;10.85;;;6.50;;
37237;SDS011;23129;49.662;8.448;2023-06-26T05:12:55;7.65;;;5.78;;
37237;SDS011;23129;49.662;8.448;2023-06-26T05:15:23;12.82;;;6.35;;
37237;SDS011;23129;49.662;8.448;2023-06-26T05:17:52;13.15;;;6.43;;
37237;SDS011;23129;49.662;8.448;2023-06-26T05:20:21;11.13;;;6.30;;
37237;SDS011;23129;49.662;8.448;2023-06-26T05:22:49;11.38;;;6.43;;
37237;SDS011;23129;49.662;8.448;2023-06-26T05:25:19;10.02;;;6.38;;
37237;SDS011;23129;49.662;8.448;2023-06-26T05:27:50;12.45;;;5.90;;
37237;SDS011;23129;49.662;8.448;2023-06-26T05:30:19;11.10;;;7.75;;
37237;SDS011;23129;49.662;8.448;2023-06-26T05:32:51;12.40;;;7.78;;
37237;SDS011;23129;49.662;8.448;2023-06-26T05:35:21;9.38;;;6.63;;
37237;SDS011;23129;49.662;8.448;2023-06-26T05:37:50;11.55;;;6.63;;
37237;SDS011;23129;49.662;8.448;2023-06-26T05:40:19;21.40;;;7.55;;
37237;SDS011;23129;49.662;8.448;2023-06-26T05:42:50;15.60;;;7.40;;
37237;SDS011;23129;49.662;8.448;2023-06-26T05:45:19;11.77;;;6.90;;
37237;SDS011;23129;49.662;8.448;2023-06-26T05:47:47;19.65;;;7.25;;
37237;SDS011;23129;49.662;8.448;2023-06-26T05:50:17;21.38;;;7.45;;
37237;SDS011;23129;49.662;8.448;2023-06-26T05:52:47;13.20;;;7.15;;
37237;SDS011;23129;49.662;8.448;2023-06-26T05:55:16;10.93;;;7.55;;
37237;SDS011;23129;49.662;8.448;2023-06-26T05:57:45;12.68;;;6.82;;
37237;SDS011;23129;49.662;8.448;2023-06-26T06:00:16;11.57;;;7.38;;
37237;SDS011;23129;49.662;8.448;2023-06-26T06:02:45;14.65;;;6.15;;
37237;SDS011;23129;49.662;8.448;2023-06-26T06:05:14;9.93;;;6.93;;
37237;SDS011;23129;49.662;8.448;2023-06-26T06:07:43;12.15;;;7.93;;
37237;SDS011;23129;49.662;8.448;2023-06-26T06:10:11;22.75;;;6.95;;
37237;SDS011;23129;49.662;8.448;2023-06-26T06:12:40;12.45;;;7.03;;
37237;SDS011;23129;49.662;8.448;2023-06-26T06:15:08;10.35;;;6.70;;
37237;SDS011;23129;49.662;8.448;2023-06-26T06:17:39;12.45;;;7.07;;
37237;SDS011;23129;49.662;8.448;2023-06-26T06:20:07;12.95;;;7.78;;
37237;SDS011;23129;49.662;8.448;2023-06-26T06:22:36;10.88;;;6.90;;
37237;SDS011;23129;49.662;8.448;2023-06-26T06:25:05;14.05;;;6.90;;
37237;SDS011;23129;49.662;8.448;2023-06-26T06:27:34;13.63;;;6.78;;
37237;SDS011;23129;49.662;8.448;2023-06-26T06:30:03;12.70;;;6.55;;
37237;SDS011;23129;49.662;8.448;2023-06-26T06:32:34;11.68;;;6.20;;
37237;SDS011;23129;49.662;8.448;2023-06-26T06:35:04;9.95;;;5.57;;
37237;SDS011;23129;49.662;8.448;2023-06-26T06:37:36;17.77;;;6.65;;
37237;SDS011;23129;49.662;8.448;2023-06-26T06:40:05;14.07;;;6.50;;
37237;SDS011;23129;49.662;8.448;2023-06-26T06:42:36;10.98;;;7.20;;
37237;SDS011;23129;49.662;8.448;2023-06-26T06:45:05;9.10;;;6.25;;
37237;SDS011;23129;49.662;8.448;2023-06-26T06:47:34;17.13;;;6.03;;
37237;SDS011;23129;49.662;8.448;2023-06-26T06:50:05;12.18;;;6.22;;
37237;SDS011;23129;49.662;8.448;2023-06-26T06:52:38;13.35;;;6.15;;
37237;SDS011;23129;49.662;8.448;2023-06-26T06:55:07;16.98;;;6.55;;
37237;SDS011;23129;49.662;8.448;2023-06-26T06:57:37;16.00;;;6.70;;
37237;SDS011;23129;49.662;8.448;2023-06-26T07:00:07;11.93;;;7.43;;
37237;SDS011;23129;49.662;8.448;2023-06-26T07:02:38;12.20;;;6.60;;
37237;SDS011;23129;49.662;8.448;2023-06-26T07:05:09;11.40;;;6.00;;
37237;SDS011;23129;49.662;8.448;2023-06-26T07:07:38;15.95;;;6.53;;
37237;SDS011;23129;49.662;8.448;2023-06-26T07:10:07;17.05;;;6.68;;
37237;SDS011;23129;49.662;8.448;2023-06-26T07:12:38;15.25;;;6.47;;
37237;SDS011;23129;49.662;8.448;2023-06-26T07:15:07;23.23;;;7.70;;
37237;SDS011;23129;49.662;8.448;2023-06-26T07:17:36;19.45;;;6.07;;
37237;SDS011;23129;49.662;8.448;2023-06-26T07:20:05;11.75;;;6.43;;
37237;SDS011;23129;49.662;8.448;2023-06-26T07:22:37;15.48;;;6.78;;
37237;SDS011;23129;49.662;8.448;2023-06-26T07:25:06;14.35;;;6.30;;
37237;SDS011;23129;49.662;8.448;2023-06-26T07:27:36;10.27;;;6.43;;
37237;SDS011;23129;49.662;8.448;2023-06-26T07:30:05;14.43;;;7.40;;
37237;SDS011;23129;49.662;8.448;2023-06-26T07:32:35;14.23;;;6.18;;
37237;SDS011;23129;49.662;8.448;2023-06-26T07:35:04;12.88;;;7.35;;
37237;SDS011;23129;49.662;8.448;2023-06-26T07:37:33;17.58;;;6.28;;
37237;SDS011;23129;49.662;8.448;2023-06-26T07:40:03;16.33;;;6.97;;
37237;SDS011;23129;49.662;8.448;2023-06-26T07:42:33;12.32;;;6.30;;
37237;SDS011;23129;49.662;8.448;2023-06-26T07:45:01;14.43;;;6.57;;
37237;SDS011;23129;49.662;8.448;2023-06-26T07:50:04;17.13;;;5.97;;
37237;SDS011;23129;49.662;8.448;2023-06-26T07:52:33;13.23;;;6.88;;
37237;SDS011;23129;49.662;8.448;2023-06-26T07:55:04;10.70;;;6.88;;
37237;SDS011;23129;49.662;8.448;2023-06-26T07:57:33;13.10;;;6.03;;
37237;SDS011;23129;49.662;8.448;2023-06-26T08:00:01;9.40;;;5.82;;
37237;SDS011;23129;49.662;8.448;2023-06-26T08:02:39;8.90;;;5.68;;
37237;SDS011;23129;49.662;8.448;2023-06-26T08:05:07;8.95;;;5.18;;
37237;SDS011;23129;49.662;8.448;2023-06-26T08:07:36;8.88;;;5.07;;
37237;SDS011;23129;49.662;8.448;2023-06-26T08:10:07;11.60;;;5.53;;
37237;SDS011;23129;49.662;8.448;2023-06-26T08:12:36;16.05;;;5.03;;
37237;SDS011;23129;49.662;8.448;2023-06-26T08:15:07;8.93;;;5.60;;
37237;SDS011;23129;49.662;8.448;2023-06-26T08:17:36;14.25;;;5.68;;
37237;SDS011;23129;49.662;8.448;2023-06-26T08:20:06;7.55;;;4.82;;
37237;SDS011;23129;49.662;8.448;2023-06-26T08:22:35;10.18;;;4.78;;
37237;SDS011;23129;49.662;8.448;2023-06-26T08:25:04;5.72;;;4.93;;
37237;SDS011;23129;49.662;8.448;2023-06-26T08:27:35;6.95;;;4.68;;
37237;SDS011;23129;49.662;8.448;2023-06-26T08:30:04;13.60;;;5.15;;
37237;SDS011;23129;49.662;8.448;2023-06-26T08:32:33;9.50;;;5.20;;
37237;SDS011;23129;49.662;8.448;2023-06-26T08:35:02;10.65;;;6.00;;
37237;SDS011;23129;49.662;8.448;2023-06-26T08:37:31;5.47;;;4.65;;
37237;SDS011;23129;49.662;8.448;2023-06-26T08:40:00;7.13;;;4.88;;
37237;SDS011;23129;49.662;8.448;2023-06-26T08:42:30;17.58;;;5.13;;
37237;SDS011;23129;49.662;8.448;2023-06-26T08:44:59;7.22;;;4.53;;
37237;SDS011;23129;49.662;8.448;2023-06-26T08:47:28;5.30;;;4.72;;
37237;SDS011;23129;49.662;8.448;2023-06-26T08:50:04;10.98;;;4.85;;
37237;SDS011;23129;49.662;8.448;2023-06-26T08:52:36;5.80;;;4.10;;
37237;SDS011;23129;49.662;8.448;2023-06-26T08:55:09;11.80;;;4.88;;
37237;SDS011;23129;49.662;8.448;2023-06-26T08:57:41;6.20;;;4.68;;
37237;SDS011;23129;49.662;8.448;2023-06-26T09:00:12;9.70;;;4.72;;
37237;SDS011;23129;49.662;8.448;2023-06-26T09:02:42;5.13;;;4.50;;
37237;SDS011;23129;49.662;8.448;2023-06-26T09:05:12;6.05;;;4.32;;
37237;SDS011;23129;49.662;8.448;2023-06-26T09:07:41;21.30;;;4.60;;
37237;SDS011;23129;49.662;8.448;2023-06-26T09:10:10;10.40;;;4.68;;
37237;SDS011;23129;49.662;8.448;2023-06-26T09:12:38;5.95;;;3.95;;
37237;SDS011;23129;49.662;8.448;2023-06-26T09:15:14;5.68;;;3.97;;
37237;SDS011;23129;49.662;8.448;2023-06-26T09:17:43;5.35;;;4.43;;
37237;SDS011;23129;49.662;8.448;2023-06-26T09:20:12;5.35;;;4.03;;
37237;SDS011;23129;49.662;8.448;2023-06-26T09:22:41;3.60;;;3.30;;
37237;SDS011;23129;49.662;8.448;2023-06-26T09:25:14;6.43;;;4.03;;
37237;SDS011;23129;49.662;8.448;2023-06-26T09:27:45;5.30;;;3.65;;
37237;SDS011;23129;49.662;8.448;2023-06-26T09:30:16;6.20;;;3.72;;
37237;SDS011;23129;49.662;8.448;2023-06-26T09:32:45;4.25;;;3.85;;
37237;SDS011;23129;49.662;8.448;2023-06-26T09:35:14;7.20;;;3.20;;
37237;SDS011;23129;49.662;8.448;2023-06-26T09:37:43;6.57;;;3.67;;
37237;SDS011;23129;49.662;8.448;2023-06-26T09:40:13;7.18;;;3.80;;
37237;SDS011;23129;49.662;8.448;2023-06-26T09:42:42;4.30;;;3.38;;
37237;SDS011;23129;49.662;8.448;2023-06-26T09:45:18;8.75;;;4.30;;
37237;SDS011;23129;49.662;8.448;2023-06-26T09:47:48;5.75;;;3.83;;
37237;SDS011;23129;49.662;8.448;2023-06-26T09:50:23;4.40;;;3.58;;
37237;SDS011;23129;49.662;8.448;2023-06-26T09:52:54;3.95;;;3.65;;
37237;SDS011;23129;49.662;8.448;2023-06-26T09:55:23;7.93;;;4.07;;
37237;SDS011;23129;49.662;8.448;2023-06-26T09:57:52;4.82;;;3.47;;
37237;SDS011;23129;49.662;8.448;2023-06-26T10:00:31;4.45;;;3.13;;
37237;SDS011;23129;49.662;8.448;2023-06-26T10:03:00;4.15;;;3.65;;
37237;SDS011;23129;49.662;8.448;2023-06-26T10:05:30;6.10;;;3.35;;
37237;SDS011;23129;49.662;8.448;2023-06-26T10:07:58;8.32;;;3.78;;
37237;SDS011;23129;49.662;8.448;2023-06-26T10:10:28;9.13;;;3.92;;
37237;SDS011;23129;49.662;8.448;2023-06-26T10:12:58;5.05;;;3.47;;
37237;SDS011;23129;49.662;8.448;2023-06-26T10:15:32;7.38;;;3.65;;
37237;SDS011;23129;49.662;8.448;2023-06-26T10:18:02;5.05;;;3.42;;
37237;SDS011;23129;49.662;8.448;2023-06-26T10:20:31;8.10;;;4.00;;
37237;SDS011;23129;49.662;8.448;2023-06-26T10:23:01;7.30;;;3.67;;
37237;SDS011;23129;49.662;8.448;2023-06-26T10:25:34;3.88;;;3.47;;
37237;SDS011;23129;49.662;8.448;2023-06-26T10:28:08;5.65;;;3.55;;
37237;SDS011;23129;49.662;8.448;2023-06-26T10:30:41;4.30;;;3.63;;
37237;SDS011;23129;49.662;8.448;2023-06-26T10:33:13;7.43;;;3.78;;
37237;SDS011;23129;49.662;8.448;2023-06-26T10:35:43;6.65;;;4.15;;
37237;SDS011;23129;49.662;8.448;2023-06-26T10:38:13;8.02;;;3.65;;
37237;SDS011;23129;49.662;8.448;2023-06-26T10:40:42;3.63;;;3.22;;
37237;SDS011;23129;49.662;8.448;2023-06-26T10:43:13;5.20;;;3.20;;
37237;SDS011;23129;49.662;8.448;2023-06-26T10:45:45;10.50;;;4.15;;
37237;SDS011;23129;49.662;8.448;2023-06-26T10:48:18;5.45;;;3.30;;
37237;SDS011;23129;49.662;8.448;2023-06-26T10:50:49;4.30;;;3.05;;
37237;SDS011;23129;49.662;8.448;2023-06-26T10:53:22;6.15;;;3.58;;
37237;SDS011;23129;49.662;8.448;2023-06-26T10:55:57;7.63;;;3.50;;
37237;SDS011;23129;49.662;8.448;2023-06-26T10:58:31;5.68;;;3.58;;
37237;SDS011;23129;49.662;8.448;2023-06-26T11:04:07;6.15;;;4.10;;
37237;SDS011;23129;49.662;8.448;2023-06-26T11:06:38;4.47;;;3.70;;
37237;SDS011;23129;49.662;8.448;2023-06-26T11:09:08;5.18;;;4.00;;
37237;SDS011;23129;49.662;8.448;2023-06-26T11:11:57;5.03;;;3.92;;
37237;SDS011;23129;49.662;8.448;2023-06-26T11:14:31;3.97;;;3.67;;
37237;SDS011;23129;49.662;8.448;2023-06-26T11:17:05;3.47;;;3.17;;
37237;SDS011;23129;49.662;8.448;2023-06-26T11:19:33;5.90;;;3.97;;
37237;SDS011;23129;49.662;8.448;2023-06-26T11:22:02;4.35;;;3.50;;
37237;SDS011;23129;49.662;8.448;2023-06-26T11:24:32;6.25;;;3.50;;
37237;SDS011;23129;49.662;8.448;2023-06-26T11:27:02;5.53;;;4.00;;
37237;SDS011;23129;49.662;8.448;2023-06-26T11:29:32;8.13;;;4.05;;
37237;SDS011;23129;49.662;8.448;2023-06-26T11:32:02;5.47;;;3.45;;
37237;SDS011;23129;49.662;8.448;2023-06-26T11:34:33;4.97;;;3.95;;
37237;SDS011;23129;49.662;8.448;2023-06-26T11:37:04;11.60;;;4.22;;
37237;SDS011;23129;49.662;8.448;2023-06-26T11:39:34;3.92;;;3.53;;
37237;SDS011;23129;49.662;8.448;2023-06-26T11:42:04;4.65;;;3.58;;
37237;SDS011;23129;49.662;8.448;2023-06-26T11:44:33;5.57;;;3.25;;
37237;SDS011;23129;49.662;8.448;2023-06-26T11:47:13;3.30;;;3.00;;
37237;SDS011;23129;49.662;8.448;2023-06-26T11:49:43;3.97;;;3.30;;
37237;SDS011;23129;49.662;8.448;2023-06-26T11:52:12;4.78;;;3.25;;
37237;SDS011;23129;49.662;8.448;2023-06-26T11:54:41;12.07;;;3.42;;
37237;SDS011;23129;49.662;8.448;2023-06-26T11:57:13;4.05;;;3.15;;
37237;SDS011;23129;49.662;8.448;2023-06-26T11:59:43;5.25;;;3.45;;
37237;SDS011;23129;49.662;8.448;2023-06-26T12:02:14;6.43;;;2.80;;
37237;SDS011;23129;49.662;8.448;2023-06-26T12:04:43;3.50;;;2.90;;
37237;SDS011;23129;49.662;8.448;2023-06-26T12:07:13;3.30;;;3.00;;
37237;SDS011;23129;49.662;8.448;2023-06-26T12:09:42;5.20;;;3.28;;
37237;SDS011;23129;49.662;8.448;2023-06-26T12:12:13;4.47;;;3.42;;
37237;SDS011;23129;49.662;8.448;2023-06-26T12:14:45;5.00;;;3.30;;
37237;SDS011;23129;49.662;8.448;2023-06-26T12:17:15;4.97;;;3.30;;
37237;SDS011;23129;49.662;8.448;2023-06-26T12:19:46;7.15;;;3.47;;
37237;SDS011;23129;49.662;8.448;2023-06-26T12:22:16;6.68;;;3.05;;
37237;SDS011;23129;49.662;8.448;2023-06-26T12:24:46;4.93;;;3.22;;
37237;SDS011;23129;49.662;8.448;2023-06-26T12:27:16;5.68;;;3.35;;
37237;SDS011;23129;49.662;8.448;2023-06-26T12:29:49;4.13;;;3.72;;
37237;SDS011;23129;49.662;8.448;2023-06-26T12:32:20;12.57;;;3.10;;
37237;SDS011;23129;49.662;8.448;2023-06-26T12:34:50;3.40;;;3.05;;
37237;SDS011;23129;49.662;8.448;2023-06-26T12:37:19;7.28;;;3.50;;
37237;SDS011;23129;49.662;8.448;2023-06-26T12:39:48;6.05;;;3.00;;
37237;SDS011;23129;49.662;8.448;2023-06-26T12:42:19;6.97;;;3.40;;
37237;SDS011;23129;49.662;8.448;2023-06-26T12:44:48;5.00;;;3.72;;
37237;SDS011;23129;49.662;8.448;2023-06-26T12:47:17;8.18;;;3.75;;
37237;SDS011;23129;49.662;8.448;2023-06-26T12:49:49;8.60;;;4.57;;
37237;SDS011;23129;49.662;8.448;2023-06-26T12:52:19;8.85;;;6.07;;
37237;SDS011;23129;49.662;8.448;2023-06-26T12:54:51;10.85;;;5.07;;
37237;SDS011;23129;49.662;8.448;2023-06-26T12:57:22;5.88;;;4.97;;
37237;SDS011;23129;49.662;8.448;2023-06-26T12:59:51;6.63;;;5.25;;
37237;SDS011;23129;49.662;8.448;2023-06-26T13:02:20;6.95;;;5.00;;
37237;SDS011;23129;49.662;8.448;2023-06-26T13:04:50;8.77;;;5.15;;
37237;SDS011;23129;49.662;8.448;2023-06-26T13:07:19;13.10;;;5.10;;
37237;SDS011;23129;49.662;8.448;2023-06-26T13:09:47;7.47;;;4.60;;
37237;SDS011;23129;49.662;8.448;2023-06-26T13:12:16;10.27;;;4.30;;
37237;SDS011;23129;49.662;8.448;2023-06-26T13:14:45;10.18;;;4.93;;
37237;SDS011;23129;49.662;8.448;2023-06-26T13:17:14;7.43;;;4.22;;
37237;SDS011;23129;49.662;8.448;2023-06-26T13:19:43;5.45;;;4.30;;
37237;SDS011;23129;49.662;8.448;2023-06-26T13:22:13;6.30;;;4.32;;
37237;SDS011;23129;49.662;8.448;2023-06-26T13:24:41;10.15;;;3.70;;
37237;SDS011;23129;49.662;8.448;2023-06-26T13:27:10;4.78;;;3.70;;
37237;SDS011;23129;49.662;8.448;2023-06-26T13:29:39;5.95;;;2.95;;
37237;SDS011;23129;49.662;8.448;2023-06-26T13:32:08;10.27;;;4.43;;
37237;SDS011;23129;49.662;8.448;2023-06-26T13:34:37;2.63;;;2.42;;
37237;SDS011;23129;49.662;8.448;2023-06-26T13:37:05;5.60;;;2.85;;
37237;SDS011;23129;49.662;8.448;2023-06-26T13:39:35;5.15;;;2.42;;
37237;SDS011;23129;49.662;8.448;2023-06-26T13:42:04;11.18;;;2.83;;
37237;SDS011;23129;49.662;8.448;2023-06-26T13:44:33;3.05;;;2.60;;
37237;SDS011;23129;49.662;8.448;2023-06-26T13:47:13;5.30;;;2.50;;
37237;SDS011;23129;49.662;8.448;2023-06-26T13:49:42;10.52;;;2.50;;
37237;SDS011;23129;49.662;8.448;2023-06-26T13:52:10;5.50;;;1.90;;
37237;SDS011;23129;49.662;8.448;2023-06-26T13:54:40;2.85;;;2.08;;
37237;SDS011;23129;49.662;8.448;2023-06-26T13:57:09;11.20;;;2.28;;
37237;SDS011;23129;49.662;8.448;2023-06-26T13:59:38;5.15;;;2.30;;
37237;SDS011;23129;49.662;8.448;2023-06-26T14:02:07;3.50;;;1.52;;
37237;SDS011;23129;49.662;8.448;2023-06-26T14:04:36;9.23;;;1.77;;
37237;SDS011;23129;49.662;8.448;2023-06-26T14:07:04;8.50;;;1.42;;
37237;SDS011;23129;49.662;8.448;2023-06-26T14:09:33;5.35;;;1.73;;
37237;SDS011;23129;49.662;8.448;2023-06-26T14:12:04;14.43;;;1.67;;
37237;SDS011;23129;49.662;8.448;2023-06-26T14:14:34;1.77;;;1.50;;
37237;SDS011;23129;49.662;8.448;2023-06-26T14:17:03;6.15;;;1.63;;
37237;SDS011;23129;49.662;8.448;2023-06-26T14:19:32;2.22;;;1.70;;
37237;SDS011;23129;49.662;8.448;2023-06-26T14:22:01;10.23;;;1.55;;
37237;SDS011;23129;49.662;8.448;2023-06-26T14:24:30;12.63;;;1.77;;
37237;SDS011;23129;49.662;8.448;2023-06-26T14:26:59;3.40;;;1.50;;
37237;SDS011;23129;49.662;8.448;2023-06-26T14:29:29;4.78;;;1.65;;
37237;SDS011;23129;49.662;8.448;2023-06-26T14:31:58;6.93;;;1.48;;
37237;SDS011;23129;49.662;8.448;2023-06-26T14:34:26;4.68;;;1.10;;
37237;SDS011;23129;49.662;8.448;2023-06-26T14:36:55;9.73;;;1.48;;
37237;SDS011;23129;49.662;8.448;2023-06-26T14:39:23;2.65;;;1.38;;
37237;SDS011;23129;49.662;8.448;2023-06-26T14:41:52;2.08;;;1.48;;
37237;SDS011;23129;49.662;8.448;2023-06-26T14:44:21;8.15;;;2.17;;
37237;SDS011;23129;49.662;8.448;2023-06-26T14:46:52;1.15;;;1.00;;
37237;SDS011;23129;49.662;8.448;2023-06-26T14:49:21;2.35;;;1.50;;
37237;SDS011;23129;49.662;8.448;2023-06-26T14:51:49;2.80;;;1.30;;
37237;SDS011;23129;49.662;8.448;2023-06-26T14:54:18;3.42;;;1.08;;
37237;SDS011;23129;49.662;8.448;2023-06-26T14:56:46;6.45;;;1.30;;
37237;SDS011;23129;49.662;8.448;2023-06-26T14:59:15;2.83;;;1.45;;
37237;SDS011;23129;49.662;8.448;2023-06-26T15:01:44;1.15;;;1.08;;
37237;SDS011;23129;49.662;8.448;2023-06-26T15:04:15;1.98;;;1.20;;
37237;SDS011;23129;49.662;8.448;2023-06-26T15:06:44;3.60;;;1.17;;
37237;SDS011;23129;49.662;8.448;2023-06-26T15:09:13;3.45;;;1.48;;